Sunday, January 25, 2015
16:18 UTC
  |  Log In   |  Register Free
Airport Search:

Enid Woodring Regional Airport
(KWDG)

FAA data valid effective January 08, 2015 - March 05, 2015 (unless otherwise noted).

 
 
 
 
 
 
 
 
 
 
 
 
 
 

Current Aviation Weather for Enid Woodring Regional Airport (KWDG)

The most recent METAR observation for KWDG was updated at: 1615
METAR Summary (Translated METAR)
KWDG
251550Z 32030G36KT 10SM SKC 11/M01 A3000
KEND
251558Z AUTO 33029G39KT 10SM CLR 10/M02 A2999 RMK AO2 PK WND 32040/31 SLP159 T00991017 $
(6.6 nm SW from KWDG)
KBKN
161915Z AUTO 19018G23KT 10SM CLR 16/M06 A3008 RMK AO2
(30.6 nm NE from KWDG)
TAF Summary (Translated TAF)
KEND
(6.6 nm SW from KWDG)
2511/2617 32020G30KT 9999 SCT250 520002 QNH2990INS TEMPO 2514/2522 32035G45KT BECMG 2523/2524 VRB06KT 9999 SCT250 QNH3011INS TX14/2521Z TN00/2610Z
  Airport Weather Conditions for KWDG

 Current Weather at WDG
52° F
Clear and Windy
Northwest winds at 34.5 mph
WDG NOAA Radar

Pressure: 30.00 in
Humidity: 44%
Wind: from the Northwest at 34.5 gusting to 41.4 MPH (30 gusting to 36 KT)
Dew Point: 30.2°F
Visibility: 10.00 mi


Airport Weather Forecast for KWDG

Translated METAR and TAF for KWDG
Translated METAR for KWDG (1618 UTC 25 January 2015)
found at http://aviationweather.gov/adds/metars/
 
METAR text: KWDG 251550Z 32030G36KT 10SM SKC 11/M01 A3000
Conditions at: KWDG (ENID/WOODRING , OK, US) observed 1550 UTC 25 January 2015
Temperature: 11.0°C (52°F)
Dewpoint: -1.0°C (30°F) [RH = 43%]
Pressure (altimeter): 30.00 inches Hg (1016.0 mb)
Winds: from the NW (320 degrees) at 34 MPH (30 knots; 15.6 m/s)
gusting to 41 MPH (36 knots; 18.7 m/s)
Visibility: 10 or more miles (16+ km)
Ceiling: at least 12,000 feet AGL
Clouds: clear skies
Weather: no significant weather observed at this time
Translated TAF for KWDG

There is no translated TAF available for this airport

Find All Airport Services Find A Hotel Find A Rental Car Find A Golf Course Find A Restaurant $100 Hamburger



FBO's on the Field
FBO Company Facility Photos Services Transportation Aviation Fuel Prices: Prices include tax
Catering Weather Repair Courtesy Rental Type 100LL JetA JetA+ MOGAS 8087
 
Enid Woodring Regional Airport

This FBO has not yet been rated
FS:Phillips 66
Last Updated: Jan-22
Login to update fuel prices
SS:
Contact Enid Woodring Regional AirportMore FBO Information
 
Add another FBO Facility Photos Catering Weather Repair Courtesy Rental Type 100LL JetA JetA+ MOGAS 8087
Services Transportation Aviation Fuel Prices: Prices include tax


model-print
model-print
model-print
model-print